Time;durP1;ratioP1;P1;durP2;ratioP2;P2;SDS_P1;SDS_P2;PMS_P1;PMS_P2;Temp;Humidity;BMP_temperature;BMP_pressure;BME280_temperature;BME280_humidity;BME280_pressure;Samples;Min_cycle;Max_cycle;Signal;HPM_P1;HPM_P2
2022/07/02 00:00:57;;;;;;;;;;;;;;;16.49;100.00;101129.70;1776381;80;20454;-83
2022/07/02 00:03:28;;;;;;;;;;;;;;;16.45;100.00;101135.72;1776391;80;20165;-83
2022/07/02 00:05:56;;;;;;;;;;;;;;;16.43;100.00;101140.28;1772130;80;20508;-83
2022/07/02 00:08:24;;;;;;;;;;;;;;;16.37;100.00;101141.70;1776423;80;20482;-84
2022/07/02 00:10:53;;;;;;;;;;;;;;;16.33;100.00;101144.75;1776381;80;21239;-83
2022/07/02 00:13:21;;;;;;;;;;;;;;;16.26;100.00;101152.84;1776595;80;20183;-83
2022/07/02 00:15:48;;;;;;;;;;;;;;;16.18;100.00;101154.38;1776712;80;20207;-83
2022/07/02 00:18:15;;;;;;;;;;;;;;;16.13;100.00;101161.00;1776769;80;20167;-84
2022/07/02 00:20:43;;;;;;;;;;;;;;;16.07;100.00;101164.52;1777060;80;20176;-85
2022/07/02 00:23:11;;;;;;;;;;;;;;;16.03;100.00;101168.39;1776738;80;21160;-83
2022/07/02 00:25:40;;;;;;;;;;;;;;;15.99;100.00;101170.13;1776457;80;20430;-84
2022/07/02 00:28:07;;;;;;;;;;;;;;;15.93;100.00;101171.02;1776570;80;20477;-84
2022/07/02 00:30:34;;;;;;;;;;;;;;;15.91;100.00;101176.89;1776367;80;20132;-83
2022/07/02 00:33:01;;;;;;;;;;;;;;;15.86;100.00;101176.48;1776371;80;20176;-84
2022/07/02 00:35:29;;;;;;;;;;;;;;;15.82;100.00;101180.30;1776838;80;21149;-83
2022/07/02 00:37:57;;;;;;;;;;;;;;;15.77;100.00;101184.64;1776312;80;20160;-83
2022/07/02 00:40:25;;;;;;;;;;;;;;;15.70;100.00;101178.27;1776429;80;20236;-83
2022/07/02 00:42:53;;;;;;;;;;;;;;;15.60;100.00;101177.41;1776493;80;20140;-83
2022/07/02 00:45:21;;;;;;;;;;;;;;;15.52;100.00;101180.73;1776377;80;20141;-83
2022/07/02 00:47:48;;;;;;;;;;;;;;;15.46;100.00;101184.70;1776568;80;21128;-83
2022/07/02 00:50:15;;;;;;;;;;;;;;;15.40;100.00;101183.94;1776526;80;20137;-83
2022/07/02 00:52:42;;;;;;;;;;;;;;;15.37;100.00;101188.63;1776672;80;20168;-83
2022/07/02 00:55:09;;;;;;;;;;;;;;;15.30;100.00;101189.63;1776552;80;20180;-83
2022/07/02 00:57:36;;;;;;;;;;;;;;;15.25;100.00;101193.95;1776715;80;20204;-83
2022/07/02 01:00:07;;;;;;;;;;;;;;;15.20;100.00;101197.92;1776498;80;20137;-83
2022/07/02 01:02:36;;;;;;;;;;;;;;;15.12;100.00;101199.41;1781674;80;20188;-82
2022/07/02 01:05:03;;;;;;;;;;;;;;;15.06;100.00;101209.13;1785827;80;20168;-83
2022/07/02 01:07:31;;;;;;;;;;;;;;;14.98;100.00;101211.56;1785872;80;20140;-82
2022/07/02 01:10:18;;;;;;;;;;;;;;;14.94;100.00;101223.28;1785902;80;20141;-83
2022/07/02 01:12:48;;;;;;;;;;;;;;;14.86;100.00;101223.91;1785726;80;21786;-83
2022/07/02 01:15:16;;;;;;;;;;;;;;;14.80;100.00;101229.67;1785844;80;20128;-82
2022/07/02 01:17:42;;;;;;;;;;;;;;;14.74;100.00;101230.20;1786248;80;20223;-83
2022/07/02 01:20:10;;;;;;;;;;;;;;;14.69;100.00;101233.20;1785745;80;20136;-83
2022/07/02 01:22:39;;;;;;;;;;;;;;;14.62;100.00;101235.95;1785902;80;20175;-82
2022/07/02 01:25:08;;;;;;;;;;;;;;;14.57;100.00;101237.63;1786027;80;21135;-85
2022/07/02 01:27:35;;;;;;;;;;;;;;;14.51;100.00;101235.49;1785889;80;20207;-84
2022/07/02 01:30:03;;;;;;;;;;;;;;;14.45;100.00;101238.16;1786306;80;20148;-83
2022/07/02 01:32:31;;;;;;;;;;;;;;;14.41;100.00;101248.52;1785822;80;20180;-83
2022/07/02 01:35:04;;;;;;;;;;;;;;;14.36;100.00;101252.82;1786441;80;20148;-83
2022/07/02 01:37:32;;;;;;;;;;;;;;;14.31;100.00;101250.22;1785905;80;21145;-83
2022/07/02 01:39:59;;;;;;;;;;;;;;;14.26;100.00;101256.31;1785993;80;20175;-82
2022/07/02 01:42:26;;;;;;;;;;;;;;;14.20;100.00;101266.80;1785680;80;20172;-82
2022/07/02 01:44:53;;;;;;;;;;;;;;;14.14;100.00;101268.13;1786414;80;20164;-83
2022/07/02 01:47:20;;;;;;;;;;;;;;;14.08;100.00;101271.23;1785935;80;20427;-83
2022/07/02 01:49:47;;;;;;;;;;;;;;;14.03;100.00;101273.40;1778472;80;21145;-83
2022/07/02 01:52:15;;;;;;;;;;;;;;;13.96;100.00;101277.45;1765787;81;20206;-83
2022/07/02 01:54:43;;;;;;;;;;;;;;;13.91;100.00;101280.90;1773279;81;20335;-83
2022/07/02 01:57:11;;;;;;;;;;;;;;;13.85;100.00;101285.67;1773359;81;20415;-83
2022/07/02 01:59:38;;;;;;;;;;;;;;;13.77;100.00;101290.67;1773391;81;20153;-83
2022/07/02 02:02:06;;;;;;;;;;;;;;;13.69;100.00;101290.44;1773219;80;21193;-83
2022/07/02 02:04:33;;;;;;;;;;;;;;;13.62;100.00;101293.17;1773173;81;20125;-82
2022/07/02 02:07:01;;;;;;;;;;;;;;;13.49;100.00;101292.83;1773617;81;20409;-83
2022/07/02 02:09:28;;;;;;;;;;;;;;;13.35;100.00;101291.23;1773305;81;20141;-83
2022/07/02 02:11:55;;;;;;;;;;;;;;;13.22;100.00;101293.12;1773278;81;20141;-83
2022/07/02 02:14:22;;;;;;;;;;;;;;;13.11;100.00;101296.52;1773007;81;21128;-83
2022/07/02 02:16:50;;;;;;;;;;;;;;;13.05;100.00;101300.91;1773153;81;20846;-82
2022/07/02 02:19:18;;;;;;;;;;;;;;;12.97;100.00;101305.42;1773184;81;20169;-83
2022/07/02 02:21:45;;;;;;;;;;;;;;;12.91;100.00;101307.16;1773555;81;20153;-82
2022/07/02 02:24:13;;;;;;;;;;;;;;;12.84;100.00;101310.72;1773266;81;20430;-83
2022/07/02 02:26:40;;;;;;;;;;;;;;;12.81;100.00;101319.26;1773419;81;21908;-83
2022/07/02 02:29:07;;;;;;;;;;;;;;;12.74;100.00;101312.33;1773460;81;20196;-83
2022/07/02 02:31:33;;;;;;;;;;;;;;;12.71;100.00;101315.16;1773227;81;20141;-83
2022/07/02 02:34:00;;;;;;;;;;;;;;;12.72;100.00;101322.05;1773579;81;20165;-83
2022/07/02 02:36:27;;;;;;;;;;;;;;;12.70;100.00;101326.58;1773320;81;20196;-83
2022/07/02 02:38:54;;;;;;;;;;;;;;;12.71;100.00;101330.38;1773335;81;21107;-83
2022/07/02 02:41:21;;;;;;;;;;;;;;;12.71;100.00;101338.22;1773178;81;20135;-83
2022/07/02 02:43:49;;;;;;;;;;;;;;;12.73;100.00;101335.03;1773447;81;20183;-83
2022/07/02 02:46:16;;;;;;;;;;;;;;;12.76;100.00;101336.09;1773445;81;20200;-83
2022/07/02 02:48:43;;;;;;;;;;;;;;;12.82;100.00;101334.00;1773481;81;20145;-82
2022/07/02 02:51:13;;;;;;;;;;;;;;;12.87;100.00;101341.84;1773285;81;20746;-83
2022/07/02 02:53:42;;;;;;;;;;;;;;;12.93;100.00;101345.33;1769856;81;20161;-84
2022/07/02 02:56:07;;;;;;;;;;;;;;;13.00;100.00;101347.48;1769599;81;20167;-83
2022/07/02 02:58:35;;;;;;;;;;;;;;;13.06;100.00;101350.45;1773073;81;20157;-83
2022/07/02 03:01:02;;;;;;;;;;;;;;;13.13;100.00;101349.55;1773288;81;20137;-83
2022/07/02 03:03:30;;;;;;;;;;;;;;;13.22;100.00;101354.58;1773229;80;21125;-83
2022/07/02 03:05:57;;;;;;;;;;;;;;;13.31;100.00;101351.73;1773299;81;20184;-83
2022/07/02 03:08:24;;;;;;;;;;;;;;;13.39;100.00;101355.95;1773251;81;20188;-83
2022/07/02 03:10:51;;;;;;;;;;;;;;;13.46;100.00;101355.84;1773163;81;20128;-83
2022/07/02 03:13:18;;;;;;;;;;;;;;;13.54;100.00;101363.13;1773083;81;20187;-83
2022/07/02 03:15:46;;;;;;;;;;;;;;;13.62;100.00;101358.59;1773277;81;21124;-83
2022/07/02 03:18:13;;;;;;;;;;;;;;;13.69;100.00;101359.34;1773032;81;20145;-83
2022/07/02 03:20:41;;;;;;;;;;;;;;;13.76;100.00;101362.30;1773542;81;20168;-83
2022/07/02 03:23:09;;;;;;;;;;;;;;;13.82;100.00;101364.92;1771646;80;20203;-83
2022/07/02 03:25:36;;;;;;;;;;;;;;;13.90;100.00;101371.70;1773344;81;21242;-83
2022/07/02 03:28:03;;;;;;;;;;;;;;;13.96;100.00;101376.95;1773141;81;21220;-83
2022/07/02 03:30:32;;;;;;;;;;;;;;;14.05;100.00;101378.86;1773141;81;20125;-83
2022/07/02 03:32:58;;;;;;;;;;;;;;;14.13;100.00;101385.64;1773296;81;20145;-83
2022/07/02 03:35:26;;;;;;;;;;;;;;;14.24;100.00;101382.64;1772935;81;20168;-83
2022/07/02 03:37:53;;;;;;;;;;;;;;;14.34;100.00;101384.41;1773632;81;20169;-83
2022/07/02 03:40:20;;;;;;;;;;;;;;;14.44;100.00;101387.61;1773216;81;21262;-83
2022/07/02 03:42:46;;;;;;;;;;;;;;;14.55;100.00;101382.83;1773436;81;20168;-83
2022/07/02 03:45:13;;;;;;;;;;;;;;;14.64;100.00;101385.56;1773124;81;20426;-83
2022/07/02 03:47:41;;;;;;;;;;;;;;;14.73;100.00;101382.70;1773102;81;20160;-83
2022/07/02 03:50:08;;;;;;;;;;;;;;;14.85;100.00;101387.92;1773009;81;20168;-83
2022/07/02 03:52:36;;;;;;;;;;;;;;;14.94;100.00;101391.92;1773373;81;21084;-83
2022/07/02 03:55:04;;;;;;;;;;;;;;;15.05;100.00;101391.05;1772939;81;20486;-83
2022/07/02 03:57:32;;;;;;;;;;;;;;;15.18;100.00;101396.12;1773414;81;33319;-83
2022/07/02 03:59:59;;;;;;;;;;;;;;;15.26;100.00;101403.37;1770662;80;20174;-82
2022/07/02 04:02:25;;;;;;;;;;;;;;;15.35;100.00;101395.20;1757927;80;20142;-83
2022/07/02 04:04:53;;;;;;;;;;;;;;;15.46;100.00;101395.16;1758676;80;21099;-83
2022/07/02 04:07:20;;;;;;;;;;;;;;;15.56;100.00;101396.52;1756831;80;20170;-83
2022/07/02 04:09:47;;;;;;;;;;;;;;;15.68;100.00;101403.84;1775956;80;20160;-83
2022/07/02 04:12:14;;;;;;;;;;;;;;;15.78;100.00;101404.23;1775761;80;20185;-83
2022/07/02 04:14:41;;;;;;;;;;;;;;;15.90;100.00;101399.77;1776120;80;20157;-83
2022/07/02 04:17:08;;;;;;;;;;;;;;;15.99;100.00;101393.37;1776039;80;21136;-83
2022/07/02 04:19:35;;;;;;;;;;;;;;;16.08;100.00;101396.53;1776111;80;20141;-83
2022/07/02 04:22:02;;;;;;;;;;;;;;;16.18;100.00;101386.89;1775922;80;20204;-83
2022/07/02 04:24:29;;;;;;;;;;;;;;;16.25;100.00;101393.73;1776349;80;20132;-83
2022/07/02 04:26:56;;;;;;;;;;;;;;;16.34;100.00;101390.81;1776127;80;20129;-83
2022/07/02 04:29:23;;;;;;;;;;;;;;;16.45;100.00;101392.48;1776089;80;21144;-82
2022/07/02 04:31:50;;;;;;;;;;;;;;;16.58;100.00;101394.38;1775309;80;20141;-83
2022/07/02 04:34:16;;;;;;;;;;;;;;;16.72;100.00;101395.78;1776044;80;20188;-83
2022/07/02 04:36:43;;;;;;;;;;;;;;;16.81;100.00;101394.97;1776238;80;20426;-83
2022/07/02 04:39:10;;;;;;;;;;;;;;;16.91;91.20;101396.28;1776006;80;20133;-83
2022/07/02 04:41:37;;;;;;;;;;;;;;;16.99;85.54;101393.83;1776120;80;21120;-83
2022/07/02 04:44:04;;;;;;;;;;;;;;;17.02;80.01;101394.84;1776106;80;20183;-83
2022/07/02 04:46:33;;;;;;;;;;;;;;;17.06;81.00;101400.69;1775970;80;20513;-83
2022/07/02 04:49:00;;;;;;;;;;;;;;;17.16;84.79;101408.07;1775983;80;20136;-83
2022/07/02 04:51:27;;;;;;;;;;;;;;;17.29;84.18;101406.47;1776059;80;20465;-83
2022/07/02 04:53:53;;;;;;;;;;;;;;;17.40;78.53;101405.98;1776139;80;21118;-83
2022/07/02 04:56:21;;;;;;;;;;;;;;;17.46;70.56;101407.58;1775897;80;20133;-84
2022/07/02 04:58:47;;;;;;;;;;;;;;;17.49;69.40;101405.14;1776272;80;20184;-84
2022/07/02 05:01:14;;;;;;;;;;;;;;;17.52;69.10;101403.52;1776142;80;20369;-85
2022/07/02 05:03:41;;;;;;;;;;;;;;;17.61;69.76;101405.80;1775060;80;20164;-84
2022/07/02 05:06:08;;;;;;;;;;;;;;;17.73;68.66;101408.60;1758849;80;21128;-84
2022/07/02 05:08:34;;;;;;;;;;;;;;;17.82;67.75;101413.02;1745242;81;20167;-84
2022/07/02 05:11:01;;;;;;;;;;;;;;;17.88;64.23;101416.88;1745743;82;20206;-84
2022/07/02 05:13:29;;;;;;;;;;;;;;;17.92;63.72;101411.66;1745084;82;20172;-84
2022/07/02 05:15:56;;;;;;;;;;;;;;;17.99;62.84;101406.68;1745393;82;20214;-84
2022/07/02 05:18:24;;;;;;;;;;;;;;;18.08;63.42;101405.81;1745406;81;21754;-84
2022/07/02 05:20:51;;;;;;;;;;;;;;;18.20;61.76;101405.13;1745378;82;20131;-84
2022/07/02 05:23:18;;;;;;;;;;;;;;;18.31;60.90;101410.69;1749443;80;20152;-83
2022/07/02 05:25:45;;;;;;;;;;;;;;;18.42;61.71;101422.84;1764339;80;20173;-83
2022/07/02 05:28:13;;;;;;;;;;;;;;;18.56;61.21;101418.38;1764335;80;20179;-83
2022/07/02 05:30:41;;;;;;;;;;;;;;;18.67;61.58;101416.52;1762906;80;21160;-84
2022/07/02 05:33:07;;;;;;;;;;;;;;;18.75;60.34;101412.64;1754020;80;20219;-84
2022/07/02 05:35:34;;;;;;;;;;;;;;;18.82;59.56;101407.11;1748624;81;20202;-83
2022/07/02 05:38:01;;;;;;;;;;;;;;;18.89;56.94;101414.75;1745235;82;20159;-83
2022/07/02 05:40:28;;;;;;;;;;;;;;;18.94;56.58;101416.16;1745545;82;20167;-83
2022/07/02 05:42:55;;;;;;;;;;;;;;;18.96;57.32;101417.66;1745436;82;21127;-84
2022/07/02 05:45:23;;;;;;;;;;;;;;;19.00;56.03;101415.05;1749949;80;20156;-84
2022/07/02 05:47:50;;;;;;;;;;;;;;;19.04;55.08;101416.88;1746611;80;20139;-83
2022/07/02 05:50:17;;;;;;;;;;;;;;;19.06;56.28;101418.89;1745585;82;20230;-83
2022/07/02 05:52:44;;;;;;;;;;;;;;;19.11;58.05;101410.02;1746715;80;20143;-84
2022/07/02 05:55:11;;;;;;;;;;;;;;;19.23;59.78;101407.49;1776397;80;21125;-84
2022/07/02 05:57:38;;;;;;;;;;;;;;;19.33;57.72;101403.43;1775801;80;20429;-83
2022/07/02 06:00:07;;;;;;;;;;;;;;;19.39;56.78;101411.23;1776694;80;20189;-84
2022/07/02 06:02:33;;;;;;;;;;;;;;;19.41;55.52;101405.31;1776108;80;20494;-84
2022/07/02 06:07:38;;;;;;;;;;;;;;;19.38;54.73;101401.65;1776117;80;20173;-84
2022/07/02 06:07:42;;;;;;;;;;;;;;;19.37;53.65;101402.16;1771822;80;20999;-83
2022/07/02 06:10:10;;;;;;;;;;;;;;;19.39;55.77;101403.31;1762142;80;20166;-84
2022/07/02 06:12:38;;;;;;;;;;;;;;;19.47;54.93;101402.05;1755536;81;20161;-83
2022/07/02 06:15:06;;;;;;;;;;;;;;;19.55;56.13;101396.82;1753622;80;20474;-84
2022/07/02 06:17:33;;;;;;;;;;;;;;;19.62;53.92;101396.19;1756952;80;20167;-84
2022/07/02 06:20:00;;;;;;;;;;;;;;;19.62;54.13;101390.43;1752363;81;21139;-84
2022/07/02 06:22:28;;;;;;;;;;;;;;;19.60;54.55;101399.47;1768046;81;20169;-84
2022/07/02 06:24:55;;;;;;;;;;;;;;;19.59;55.62;101399.16;1762867;81;20130;-85
2022/07/02 06:27:22;;;;;;;;;;;;;;;19.59;54.43;101401.80;1762706;81;20138;-93
2022/07/02 06:29:49;;;;;;;;;;;;;;;19.59;56.41;101402.62;1744605;81;20500;-88
2022/07/02 06:32:16;;;;;;;;;;;;;;;19.68;56.17;101403.01;1732501;82;21133;-86
2022/07/02 06:34:44;;;;;;;;;;;;;;;19.80;57.16;101393.00;1759104;81;20140;-86
2022/07/02 06:37:11;;;;;;;;;;;;;;;19.98;56.36;101393.45;1762951;81;20143;-88
2022/07/02 06:39:37;;;;;;;;;;;;;;;20.13;57.42;101383.08;1762415;81;20189;-85
2022/07/02 06:42:20;;;;;;;;;;;;;;;20.27;53.94;101382.97;1762883;81;20170;-85
2022/07/02 06:44:51;;;;;;;;;;;;;;;20.35;55.08;101384.31;1762758;81;21728;-84
2022/07/02 06:47:20;;;;;;;;;;;;;;;20.42;53.28;101395.91;1761441;81;20162;-84
2022/07/02 06:49:54;;;;;;;;;;;;;;;20.45;51.81;101399.56;1762769;81;20154;-85
2022/07/02 06:52:21;;;;;;;;;;;;;;;20.37;50.79;101396.89;1762707;81;20182;-88
2022/07/02 06:54:48;;;;;;;;;;;;;;;20.27;50.99;101387.75;1749665;80;20200;-91
2022/07/02 06:57:15;;;;;;;;;;;;;;;20.25;52.24;101384.94;1763315;80;21083;-89
2022/07/02 06:59:42;;;;;;;;;;;;;;;20.35;53.20;101390.11;1776477;80;20172;-89
2022/07/02 07:02:09;;;;;;;;;;;;;;;20.43;50.96;101390.95;1776446;80;20493;-89
2022/07/02 07:04:36;;;;;;;;;;;;;;;20.47;51.29;101380.88;1776693;80;20172;-91
2022/07/02 07:07:04;;;;;;;;;;;;;;;20.52;54.05;101385.17;1775971;80;20176;-90
2022/07/02 07:09:34;;;;;;;;;;;;;;;20.60;54.11;101381.22;1776434;80;21149;-86
2022/07/02 07:12:07;;;;;;;;;;;;;;;20.73;52.23;101387.39;1776145;80;20430;-86
2022/07/02 07:15:04;;;;;;;;;;;;;;;20.83;52.87;101383.77;1776532;80;20144;-85
2022/07/02 07:17:32;;;;;;;;;;;;;;;20.89;51.21;101387.06;1772489;80;20138;-85
2022/07/02 07:19:59;;;;;;;;;;;;;;;20.85;50.62;101395.02;1776696;80;20184;-88
2022/07/02 07:22:27;;;;;;;;;;;;;;;20.84;49.74;101388.06;1767050;80;21133;-86
2022/07/02 07:24:57;;;;;;;;;;;;;;;20.87;50.07;101379.81;1732644;83;20217;-86
2022/07/02 07:27:31;;;;;;;;;;;;;;;20.93;49.06;101383.11;1733009;82;20483;-85
2022/07/02 07:29:59;;;;;;;;;;;;;;;20.96;50.33;101386.26;1732951;83;20484;-85
2022/07/02 07:32:29;;;;;;;;;;;;;;;21.08;49.42;101388.08;1733014;83;20144;-85
2022/07/02 07:34:56;;;;;;;;;;;;;;;21.15;46.84;101379.45;1732491;83;21248;-87
2022/07/02 07:37:23;;;;;;;;;;;;;;;21.18;47.80;101380.46;1732891;83;20150;-87
2022/07/02 07:39:50;;;;;;;;;;;;;;;21.25;47.37;101380.12;1732438;82;20148;-85
2022/07/02 07:42:16;;;;;;;;;;;;;;;21.35;46.30;101383.39;1732631;82;20165;-86
2022/07/02 07:44:43;;;;;;;;;;;;;;;21.37;45.29;101378.77;1771410;80;20136;-87
2022/07/02 07:47:10;;;;;;;;;;;;;;;21.41;47.06;101376.13;1776352;80;21141;-86
2022/07/02 07:49:38;;;;;;;;;;;;;;;21.51;49.01;101381.23;1776431;80;20172;-86
2022/07/02 07:52:05;;;;;;;;;;;;;;;21.65;47.00;101382.39;1776300;80;20497;-86
2022/07/02 07:54:32;;;;;;;;;;;;;;;21.78;49.87;101395.59;1776615;80;20411;-85
2022/07/02 07:56:59;;;;;;;;;;;;;;;21.83;48.04;101376.05;1770568;80;20142;-85
2022/07/02 07:59:26;;;;;;;;;;;;;;;21.85;47.50;101375.35;1768663;81;21134;-87
2022/07/02 08:01:53;;;;;;;;;;;;;;;21.87;45.93;101376.83;1768763;81;20181;-86
2022/07/02 08:04:20;;;;;;;;;;;;;;;21.89;45.78;101376.16;1764644;81;20147;-86
2022/07/02 08:06:47;;;;;;;;;;;;;;;21.98;45.87;101377.45;1754629;81;20135;-85
2022/07/02 08:09:14;;;;;;;;;;;;;;;22.01;45.28;101381.91;1755031;81;20130;-85
2022/07/02 08:11:40;;;;;;;;;;;;;;;22.02;46.39;101378.78;1779275;80;21135;-86
2022/07/02 08:14:07;;;;;;;;;;;;;;;22.12;46.10;101379.89;1785687;80;20136;-86
2022/07/02 08:16:34;;;;;;;;;;;;;;;22.23;45.43;101374.20;1772719;80;20188;-88
2022/07/02 08:19:01;;;;;;;;;;;;;;;22.30;45.06;101378.30;1756292;80;20147;-85
2022/07/02 08:21:30;;;;;;;;;;;;;;;22.28;46.14;101373.17;1760449;80;20206;-87
2022/07/02 08:23:57;;;;;;;;;;;;;;;22.25;47.35;101372.70;1764903;80;21169;-86
2022/07/02 08:26:24;;;;;;;;;;;;;;;22.29;44.92;101380.13;1756785;80;20553;-86
2022/07/02 08:28:51;;;;;;;;;;;;;;;22.34;43.93;101362.37;1756872;80;20501;-86
2022/07/02 08:31:17;;;;;;;;;;;;;;;22.38;45.70;101364.50;1785872;80;20171;-87
2022/07/02 08:33:44;;;;;;;;;;;;;;;22.41;43.61;101373.11;1785850;80;20187;-85
2022/07/02 08:39:26;;;;;;;;;;;;;;;22.37;45.72;101363.33;1786055;80;20168;-86
2022/07/02 08:41:57;;;;;;;;;;;;;;;22.54;45.40;101361.44;1785753;80;20496;-85
2022/07/02 08:48:07;;;;;;;;;;;;;;;22.68;44.29;101371.28;1786661;80;20137;-84
2022/07/02 08:50:41;;;;;;;;;;;;;;;22.77;46.99;101369.38;1786433;80;21777;-84
2022/07/02 08:53:08;;;;;;;;;;;;;;;22.88;46.08;101364.15;1785809;80;20593;-86
2022/07/02 08:55:36;;;;;;;;;;;;;;;23.00;44.10;101372.03;1786220;80;20156;-88
2022/07/02 08:58:06;;;;;;;;;;;;;;;23.11;43.23;101365.45;1786047;80;20191;-87
2022/07/02 09:00:41;;;;;;;;;;;;;;;23.21;43.75;101365.21;1786063;80;20136;-86
2022/07/02 09:03:13;;;;;;;;;;;;;;;23.28;41.40;101367.47;1786043;80;21138;-86
2022/07/02 09:05:42;;;;;;;;;;;;;;;23.18;42.51;101372.72;1809966;79;20225;-85
2022/07/02 09:08:10;;;;;;;;;;;;;;;23.09;43.08;101378.59;1799464;78;20494;-88
2022/07/02 09:10:39;;;;;;;;;;;;;;;23.07;43.16;101379.27;1766722;80;20166;-87
2022/07/02 09:13:11;;;;;;;;;;;;;;;23.11;44.24;101375.27;1804442;79;20169;-87
2022/07/02 09:15:38;;;;;;;;;;;;;;;23.17;40.68;101370.55;1796666;79;21150;-85
2022/07/02 09:18:05;;;;;;;;;;;;;;;23.15;41.95;101380.52;1797880;80;20140;-86
2022/07/02 09:20:32;;;;;;;;;;;;;;;23.16;41.71;101382.17;1798088;80;20156;-85
2022/07/02 09:23:01;;;;;;;;;;;;;;;23.18;42.71;101374.05;1798148;79;20140;-86
2022/07/02 09:25:30;;;;;;;;;;;;;;;23.23;42.99;101369.85;1798262;80;20147;-86
2022/07/02 09:28:03;;;;;;;;;;;;;;;23.31;44.50;101371.61;1798074;80;20784;-85
2022/07/02 09:30:35;;;;;;;;;;;;;;;23.43;44.62;101371.99;1798286;80;20135;-84
2022/07/02 09:35:47;;;;;;;;;;;;;;;23.44;45.12;101360.33;1798278;79;20614;-86
2022/07/02 09:38:14;;;;;;;;;;;;;;;23.53;43.39;101366.40;1798328;79;20210;-86
2022/07/02 09:40:54;;;;;;;;;;;;;;;23.60;45.40;101358.82;1798027;80;21251;-85
2022/07/02 09:43:26;;;;;;;;;;;;;;;23.79;43.21;101361.45;1798251;79;20124;-85
2022/07/02 09:45:54;;;;;;;;;;;;;;;24.01;41.89;101360.69;1798477;80;20405;-84
2022/07/02 09:48:21;;;;;;;;;;;;;;;24.04;41.86;101362.98;1798196;79;20132;-85
2022/07/02 09:50:47;;;;;;;;;;;;;;;23.96;40.37;101367.89;1797889;79;20210;-86
2022/07/02 09:53:15;;;;;;;;;;;;;;;23.88;39.55;101364.81;1798041;80;21223;-88
2022/07/02 09:55:49;;;;;;;;;;;;;;;23.91;40.77;101371.59;1798116;80;20425;-86
2022/07/02 09:58:25;;;;;;;;;;;;;;;24.02;41.63;101363.18;1796929;79;20171;-88
2022/07/02 10:00:52;;;;;;;;;;;;;;;24.16;40.78;101356.16;1797773;80;20152;-89
2022/07/02 10:03:19;;;;;;;;;;;;;;;24.29;41.23;101356.81;1798076;80;20140;-86
2022/07/02 10:05:52;;;;;;;;;;;;;;;24.36;41.95;101351.56;1786651;79;21210;-87
2022/07/02 10:08:20;;;;;;;;;;;;;;;24.48;42.26;101354.55;1780177;80;20144;-86
2022/07/02 10:10:47;;;;;;;;;;;;;;;24.62;42.22;101362.97;1780485;80;20608;-86
2022/07/02 10:13:15;;;;;;;;;;;;;;;24.64;44.71;101357.45;1780723;80;20212;-87
2022/07/02 10:15:48;;;;;;;;;;;;;;;24.59;42.92;101354.05;1780176;80;20209;-89
2022/07/02 10:18:16;;;;;;;;;;;;;;;24.50;45.16;101352.01;1778797;80;21083;-88
2022/07/02 10:20:50;;;;;;;;;;;;;;;24.36;43.88;101344.39;1775539;80;20463;-88
2022/07/02 10:23:18;;;;;;;;;;;;;;;24.37;44.83;101330.59;1771631;80;20180;-87
2022/07/02 10:25:47;;;;;;;;;;;;;;;24.49;43.51;101341.56;1769042;80;20141;-89
2022/07/02 10:28:14;;;;;;;;;;;;;;;24.54;42.19;101338.65;1752327;80;20199;-87
2022/07/02 10:30:42;;;;;;;;;;;;;;;24.56;41.85;101345.91;1765788;80;21190;-89
2022/07/02 10:33:16;;;;;;;;;;;;;;;24.62;43.10;101347.52;1780114;80;20137;-88
2022/07/02 10:35:43;;;;;;;;;;;;;;;24.68;43.11;101333.47;1770098;80;20175;-88
2022/07/02 10:38:10;;;;;;;;;;;;;;;24.71;43.52;101331.77;1760729;80;20476;-88
2022/07/02 10:40:46;;;;;;;;;;;;;;;24.76;43.63;101341.31;1761017;80;20143;-88
2022/07/02 10:43:17;;;;;;;;;;;;;;;24.73;42.35;101339.03;1754710;80;21224;-88
2022/07/02 10:45:45;;;;;;;;;;;;;;;24.57;42.14;101337.44;1762049;80;20437;-90
2022/07/02 10:48:13;;;;;;;;;;;;;;;24.51;43.19;101330.22;1765121;80;20141;-89
2022/07/02 10:50:46;;;;;;;;;;;;;;;24.52;44.57;101334.50;1741775;80;20141;-87
2022/07/02 10:53:19;;;;;;;;;;;;;;;24.66;42.55;101331.46;1757448;80;20163;-86
2022/07/02 10:55:59;;;;;;;;;;;;;;;24.76;40.21;101340.51;1759719;80;21806;-85
2022/07/02 10:58:28;;;;;;;;;;;;;;;24.80;42.59;101336.44;1761479;80;20216;-87
2022/07/02 11:00:56;;;;;;;;;;;;;;;24.78;41.74;101341.12;1749141;82;20135;-86
2022/07/02 11:03:25;;;;;;;;;;;;;;;24.73;43.84;101335.03;1757440;80;20192;-87
2022/07/02 11:06:00;;;;;;;;;;;;;;;24.71;43.14;101330.44;1749346;81;20149;-86
2022/07/02 11:08:49;;;;;;;;;;;;;;;24.68;41.16;101334.80;1749449;82;21146;-85
2022/07/02 11:11:31;;;;;;;;;;;;;;;24.65;40.89;101328.48;1749369;82;20129;-88
2022/07/02 11:14:06;;;;;;;;;;;;;;;24.64;42.99;101325.50;1749433;80;20144;-86
2022/07/02 11:16:37;;;;;;;;;;;;;;;24.73;41.98;101329.22;1749453;80;20125;-86
2022/07/02 11:19:15;;;;;;;;;;;;;;;24.79;43.78;101328.96;1755349;80;20215;-91
2022/07/02 11:21:42;;;;;;;;;;;;;;;24.84;41.82;101315.88;1740377;80;21791;-86
2022/07/02 11:24:10;;;;;;;;;;;;;;;24.81;41.64;101326.91;1780436;80;20152;-86
2022/07/02 11:26:41;;;;;;;;;;;;;;;24.81;40.55;101326.09;1777191;80;20488;-87
2022/07/02 11:29:09;;;;;;;;;;;;;;;24.84;41.33;101335.02;1759347;80;20180;-87
2022/07/02 11:31:37;;;;;;;;;;;;;;;24.87;43.79;101324.83;1752025;80;20439;-87
2022/07/02 11:34:04;;;;;;;;;;;;;;;24.97;41.69;101318.31;1749655;81;20858;-88
2022/07/02 11:36:31;;;;;;;;;;;;;;;25.05;44.19;101320.83;1757796;80;20958;-86
2022/07/02 11:38:58;;;;;;;;;;;;;;;25.17;43.49;101327.28;1755569;80;20156;-86
2022/07/02 11:41:33;;;;;;;;;;;;;;;25.17;41.59;101321.95;1760547;80;20172;-84
2022/07/02 11:44:01;;;;;;;;;;;;;;;25.15;42.66;101317.84;1756363;80;20189;-86
2022/07/02 11:46:29;;;;;;;;;;;;;;;25.19;41.29;101329.25;1749174;81;21154;-84
2022/07/02 11:48:58;;;;;;;;;;;;;;;25.23;39.80;101327.02;1753616;80;20147;-83
2022/07/02 11:51:25;;;;;;;;;;;;;;;25.27;42.57;101320.78;1750502;80;20221;-85
2022/07/02 11:53:56;;;;;;;;;;;;;;;25.41;42.06;101308.36;1758067;80;20175;-83
2022/07/02 11:56:23;;;;;;;;;;;;;;;25.57;41.15;101308.55;1756943;80;20163;-84
2022/07/02 11:58:50;;;;;;;;;;;;;;;25.60;40.15;101321.50;1749630;81;21137;-84
2022/07/02 12:01:29;;;;;;;;;;;;;;;25.51;41.93;101320.33;1752517;80;20151;-84
2022/07/02 12:04:04;;;;;;;;;;;;;;;25.47;40.33;101324.40;1751522;80;20190;-85
2022/07/02 12:06:34;;;;;;;;;;;;;;;25.35;39.18;101322.77;1750605;81;20132;-84
2022/07/02 12:09:02;;;;;;;;;;;;;;;25.28;42.46;101311.77;1755775;81;20195;-84
2022/07/02 12:11:33;;;;;;;;;;;;;;;25.35;41.53;101311.30;1755895;81;21155;-85
2022/07/02 12:14:02;;;;;;;;;;;;;;;25.44;43.09;101308.79;1757107;81;20453;-86
2022/07/02 12:16:30;;;;;;;;;;;;;;;25.48;41.15;101306.05;1755608;81;20164;-84
2022/07/02 12:19:00;;;;;;;;;;;;;;;25.49;40.88;101311.70;1757206;81;20144;-84
2022/07/02 12:21:38;;;;;;;;;;;;;;;25.48;40.36;101299.88;1754885;81;20221;-85
2022/07/02 12:24:22;;;;;;;;;;;;;;;25.44;41.35;101300.79;1738009;81;21177;-85
2022/07/02 12:26:51;;;;;;;;;;;;;;;25.42;40.10;101300.19;1752774;81;20204;-85
2022/07/02 12:32:11;;;;;;;;;;;;;;;25.34;41.54;101295.80;1746334;81;20188;-85
2022/07/02 12:34:49;;;;;;;;;;;;;;;25.51;42.65;101298.16;1758362;81;20232;-84
2022/07/02 12:37:27;;;;;;;;;;;;;;;25.66;41.28;101303.37;1757604;81;21200;-84
2022/07/02 12:40:09;;;;;;;;;;;;;;;25.76;42.90;101300.31;1754004;81;20172;-88
2022/07/02 12:42:47;;;;;;;;;;;;;;;25.82;40.07;101300.35;1759515;81;20517;-85
2022/07/02 12:45:25;;;;;;;;;;;;;;;25.80;39.76;101299.72;1771795;81;20172;-83
2022/07/02 12:48:03;;;;;;;;;;;;;;;25.80;39.69;101306.39;1760244;81;20633;-84
2022/07/02 12:50:37;;;;;;;;;;;;;;;25.73;39.76;101309.55;1760571;81;21799;-85
2022/07/02 12:53:13;;;;;;;;;;;;;;;25.63;41.07;101300.59;1757666;81;20138;-86